This is the latest recevied weather packets stored in our database for station/object SQ8NA-15. If no packets are shown the sender has not sent any weather packets the latest 10 day(s).
| Time | Temp. | Humidity | Pressure | Rain* | Wind** | Luminosity | Snow |
|---|---|---|---|---|---|---|---|
| 1787781502 | 11.11° C | 94% | 984.3 hPa | 0 mm | - | 0 W/m² | - |
| 1787780893 | 10.56° C | 95% | 984.4 hPa | 0 mm | - | 0 W/m² | - |
| 1787779667 | 11.11° C | 93% | 984.4 hPa | 0 mm | - | 0 W/m² | - |
| 1787779065 | 11.67° C | 93% | 984.4 hPa | 0 mm | - | 0 W/m² | - |
| 1787778455 | 11.11° C | 92% | 984.4 hPa | 0 mm | - | 0 W/m² | - |
| 1787777215 | 11.67° C | 91% | 984.3 hPa | 0 mm | - | 0 W/m² | - |
| 1787776615 | 11.67° C | 91% | 984.4 hPa | 0 mm | - | 0 W/m² | - |
| 1787776005 | 11.67° C | 90% | 984.4 hPa | 0 mm | - | 0 W/m² | - |
| 1787774765 | 12.22° C | 89% | 984.3 hPa | 0 mm | - | 0 W/m² | - |
| 1787774165 | 12.78° C | 87% | 984.2 hPa | 0 mm | - | 0 W/m² | - |
| 1787773554 | 12.78° C | 88% | 984.2 hPa | 0 mm | - | 0 W/m² | - |
| 1787772940 | 12.78° C | 86% | 984.1 hPa | 0 mm | - | 0 W/m² | - |
| 1787771715 | 13.33° C | 84% | 984.1 hPa | 0 mm | - | 0 W/m² | - |
| 1787771115 | 13.89° C | 82% | 984 hPa | 0 mm | - | 0 W/m² | - |
| 1787770505 | 13.89° C | 80% | 983.9 hPa | 0 mm | - | 0 W/m² | - |
| 1787769265 | 15° C | 75% | 983.8 hPa | 0 mm | - | 0 W/m² | - |
| 1787768654 | 15° C | 73% | 983.7 hPa | 0 mm | - | 0 W/m² | - |
| 1787768043 | 16.11° C | 70% | 983.8 hPa | 0 mm | - | 0 W/m² | - |
| 1787766817 | 16.67° C | 68% | 983.7 hPa | 0 mm | - | 0 W/m² | - |
| 1787766217 | 17.22° C | 66% | 983.6 hPa | 0 mm | - | 1 W/m² | - |
| 1787765617 | 17.22° C | 66% | 983.5 hPa | 0 mm | - | 2 W/m² | - |
| 1787765003 | 17.22° C | 64% | 983.5 hPa | 0 mm | - | 4 W/m² | - |
| 1787763767 | 17.22° C | 65% | 983.3 hPa | 0 mm | - | 16 W/m² | - |
| 1787763154 | 17.78° C | 64% | 983.3 hPa | 0 mm | - | 24 W/m² | - |
| 1787762541 | 18.33° C | 61% | 983.2 hPa | 0 mm | - | 31 W/m² | - |
* Rain latest hour (hover to see other rain measurements)
** Current wind speed in m/s (hover to see current wind gust speed)